createdAt,value
2022-09-03T00:00:58.504Z,11.45
2022-09-03T00:07:03.267Z,10.90
2022-09-03T00:13:09.960Z,11.63
2022-09-03T00:19:18.210Z,11.45
2022-09-03T00:25:22.885Z,11.30
2022-09-03T00:31:31.352Z,11.45
2022-09-03T00:37:38.151Z,11.05
2022-09-03T00:43:48.664Z,11.90
2022-09-03T00:49:56.080Z,11.65
2022-09-03T00:56:06.206Z,11.05
2022-09-03T01:02:14.488Z,11.25
2022-09-03T01:08:28.399Z,11.93
2022-09-03T01:14:39.463Z,11.07
2022-09-03T01:20:49.938Z,11.43
2022-09-03T01:27:03.572Z,12.25
2022-09-03T01:33:14.381Z,12.18
2022-09-03T01:39:25.633Z,11.73
2022-09-03T01:45:36.586Z,12.45
2022-09-03T01:51:41.885Z,15.43
2022-09-03T01:57:51.530Z,15.52
2022-09-03T02:04:00.113Z,16.77
2022-09-03T02:10:07.740Z,17.20
2022-09-03T02:16:14.122Z,17.80
2022-09-03T02:22:17.586Z,17.65
2022-09-03T02:28:22.528Z,18.15
2022-09-03T02:34:26.111Z,17.80
2022-09-03T02:40:29.491Z,17.15
2022-09-03T02:46:37.638Z,16.52
2022-09-03T02:52:41.028Z,17.45
2022-09-03T02:58:45.625Z,17.42
2022-09-03T03:04:50.312Z,16.80
2022-09-03T03:10:54.191Z,16.70
2022-09-03T03:16:57.669Z,17.50
2022-09-03T03:23:05.770Z,17.00
2022-09-03T03:29:09.746Z,16.98
2022-09-03T03:35:13.712Z,17.08
2022-09-03T03:41:19.492Z,18.17
2022-09-03T03:47:22.868Z,17.25
2022-09-03T03:53:26.552Z,17.00
2022-09-03T03:59:31.372Z,18.63
2022-09-03T04:05:34.701Z,18.45
2022-09-03T04:11:38.054Z,18.65
2022-09-03T04:17:44.153Z,17.88
2022-09-03T04:23:48.954Z,19.08
2022-09-03T04:29:52.539Z,19.67
2022-09-03T04:36:02.996Z,18.73
2022-09-03T04:42:06.483Z,18.95
2022-09-03T04:48:11.946Z,19.10
2022-09-03T04:54:16.728Z,19.13
2022-09-03T05:00:20.463Z,19.70
2022-09-03T05:06:24.692Z,19.20
2022-09-03T05:12:30.099Z,20.10
2022-09-03T05:18:35.813Z,18.92
2022-09-03T05:24:39.239Z,19.10
2022-09-03T05:30:43.990Z,19.35
2022-09-03T05:36:49.196Z,18.98
2022-09-03T05:42:56.844Z,19.08
2022-09-03T05:49:02.079Z,18.85
2022-09-03T05:55:06.970Z,18.35
2022-09-03T06:01:12.872Z,19.08
2022-09-03T06:07:17.581Z,18.67
2022-09-03T06:13:21.090Z,18.35
2022-09-03T06:19:24.603Z,18.80
2022-09-03T06:25:29.329Z,18.50
2022-09-03T06:31:32.725Z,18.20
2022-09-03T06:37:41.146Z,18.55
2022-09-03T06:43:46.464Z,17.70
2022-09-03T06:49:49.820Z,17.17
2022-09-03T06:55:57.026Z,17.02
2022-09-03T07:02:03.869Z,17.48
2022-09-03T07:08:07.957Z,16.67
2022-09-03T07:14:11.691Z,15.45
2022-09-03T07:20:16.614Z,15.23
2022-09-03T07:26:20.946Z,15.32
2022-09-03T07:32:24.309Z,16.42
2022-09-03T07:38:29.051Z,15.43
2022-09-03T07:44:32.443Z,14.05
2022-09-03T07:50:39.275Z,12.80
2022-09-03T07:56:44.294Z,11.55
2022-09-03T08:02:47.686Z,11.45
2022-09-03T08:08:51.540Z,11.18
2022-09-03T08:14:58.051Z,12.23
2022-09-03T08:21:01.432Z,10.68
2022-09-03T08:27:05.193Z,12.23
2022-09-03T08:33:09.963Z,12.55
2022-09-03T08:39:13.642Z,10.38
2022-09-03T08:45:18.869Z,11.13
2022-09-03T08:51:27.936Z,11.55
2022-09-03T08:57:34.678Z,11.35
2022-09-03T09:03:44.905Z,9.25
2022-09-03T09:09:52.609Z,12.23
2022-09-03T09:15:58.331Z,12.35
2022-09-03T09:22:03.544Z,12.98
2022-09-03T09:28:15.180Z,12.38
2022-09-03T09:34:18.593Z,10.25
2022-09-03T09:40:26.754Z,10.80
2022-09-03T09:46:35.613Z,12.55
2022-09-03T09:52:40.456Z,12.07
2022-09-03T09:58:44.168Z,13.80
2022-09-03T10:04:48.982Z,13.63
2022-09-03T10:10:53.042Z,12.95
2022-09-03T10:17:00.307Z,13.60
2022-09-03T10:23:09.542Z,14.40
2022-09-03T10:29:14.094Z,14.40
2022-09-03T10:35:22.290Z,13.05
2022-09-03T10:41:33.166Z,13.40
2022-09-03T10:47:41.892Z,10.55
2022-09-03T10:53:53.487Z,12.55
2022-09-03T11:00:07.193Z,10.90
2022-09-03T11:06:13.425Z,10.85
2022-09-03T11:12:21.558Z,11.10
2022-09-03T11:18:28.875Z,10.15
2022-09-03T11:24:34.189Z,10.98
2022-09-03T11:30:41.103Z,11.70
2022-09-03T11:36:48.027Z,12.85
2022-09-03T11:42:51.590Z,10.25
2022-09-03T11:48:55.990Z,11.40
2022-09-03T11:55:00.835Z,12.57
2022-09-03T12:01:05.847Z,11.98
2022-09-03T12:07:24.115Z,11.45
2022-09-03T12:13:40.513Z,12.75
2022-09-03T12:19:54.405Z,11.05
2022-09-03T12:25:57.777Z,12.40
2022-09-03T12:32:10.142Z,10.90
2022-09-03T12:38:18.568Z,7.05
2022-09-03T12:44:28.295Z,9.57
2022-09-03T12:50:35.308Z,9.60
2022-09-03T12:56:42.647Z,7.55
2022-09-03T13:02:49.021Z,6.70
2022-09-03T13:08:54.846Z,6.22
2022-09-03T13:14:58.430Z,7.45
2022-09-03T13:21:09.230Z,5.30
2022-09-03T13:27:20.592Z,5.50
2022-09-03T13:33:26.496Z,4.90
2022-09-03T13:39:37.233Z,5.47
2022-09-03T13:45:46.190Z,4.95
2022-09-03T13:51:51.457Z,4.90
2022-09-03T13:58:01.002Z,4.93
2022-09-03T14:04:13.091Z,5.90
2022-09-03T14:10:22.836Z,4.90
2022-09-03T14:16:31.270Z,3.90
2022-09-03T14:22:42.457Z,4.43
2022-09-03T14:28:49.438Z,4.82
2022-09-03T14:35:11.959Z,5.88
2022-09-03T14:41:24.916Z,5.60
2022-09-03T14:47:39.100Z,4.53
2022-09-03T14:53:54.276Z,4.88
2022-09-03T15:00:19.764Z,6.18
2022-09-03T15:06:30.906Z,6.57
2022-09-03T15:12:37.604Z,6.30
2022-09-03T15:18:52.366Z,6.38
2022-09-03T15:24:58.376Z,5.75
2022-09-03T15:31:04.368Z,5.20
2022-09-03T15:37:13.893Z,5.10
2022-09-03T15:43:21.856Z,4.38
2022-09-03T15:49:45.366Z,5.25
2022-09-03T15:55:50.307Z,5.25
2022-09-03T16:01:56.910Z,5.57
2022-09-03T16:08:07.062Z,5.70
2022-09-03T16:14:14.792Z,5.10
2022-09-03T16:20:21.659Z,5.65
2022-09-03T16:26:29.618Z,2.90
2022-09-03T16:32:40.254Z,2.72
2022-09-03T16:38:48.927Z,3.25
2022-09-03T16:44:57.744Z,3.17
2022-09-03T16:51:09.747Z,2.72
2022-09-03T16:57:18.976Z,3.70
2022-09-03T17:03:41.100Z,3.30
2022-09-03T17:09:56.196Z,4.20
2022-09-03T17:16:04.139Z,7.35
2022-09-03T17:22:17.833Z,10.10
2022-09-03T17:28:25.795Z,9.43
2022-09-03T17:34:36.123Z,6.45
2022-09-03T17:40:44.561Z,8.65
2022-09-03T17:46:50.946Z,14.00
2022-09-03T17:52:57.059Z,9.18
2022-09-03T17:59:06.012Z,14.48
2022-09-03T18:05:18.817Z,9.73
2022-09-03T18:11:24.495Z,13.00
2022-09-03T18:17:30.317Z,15.23
2022-09-03T18:23:55.803Z,15.85
2022-09-03T18:30:20.279Z,19.23
2022-09-03T18:36:41.834Z,18.80
2022-09-03T18:43:10.728Z,18.58
2022-09-03T18:49:38.530Z,17.15
2022-09-03T18:56:05.310Z,18.25
2022-09-03T19:02:32.712Z,19.50
2022-09-03T19:08:58.067Z,23.48
2022-09-03T19:15:21.706Z,25.30
2022-09-03T19:21:51.135Z,26.48
2022-09-03T19:28:21.619Z,27.83
2022-09-03T19:34:50.682Z,28.25
2022-09-03T19:41:21.000Z,26.30
2022-09-03T19:47:46.211Z,28.00
2022-09-03T19:54:08.113Z,31.90
2022-09-03T20:00:33.248Z,33.00
2022-09-03T20:06:55.522Z,33.53
2022-09-03T20:13:03.794Z,34.33
2022-09-03T20:19:17.088Z,36.55
2022-09-03T20:25:27.857Z,35.25
2022-09-03T20:31:38.075Z,33.40
2022-09-03T20:37:50.348Z,35.13
2022-09-03T20:44:05.752Z,34.15
2022-09-03T20:50:14.938Z,29.98
2022-09-03T20:56:24.446Z,22.67
2022-09-03T21:02:32.749Z,32.03
2022-09-03T21:08:48.686Z,31.38
2022-09-03T21:14:56.417Z,31.55
2022-09-03T21:21:03.944Z,33.30
2022-09-03T21:27:13.075Z,32.75
2022-09-03T21:33:21.277Z,33.70
2022-09-03T21:39:28.129Z,33.38
2022-09-03T21:45:33.699Z,33.30
2022-09-03T21:51:41.656Z,32.60
2022-09-03T21:57:49.350Z,33.42
2022-09-03T22:03:53.216Z,33.55
2022-09-03T22:10:03.455Z,33.80
2022-09-03T22:16:13.747Z,33.60
2022-09-03T22:22:18.980Z,32.45
2022-09-03T22:28:28.688Z,34.08
2022-09-03T22:34:45.702Z,35.10
2022-09-03T22:40:52.441Z,32.38
2022-09-03T22:47:03.100Z,31.83
2022-09-03T22:53:13.770Z,32.05
2022-09-03T22:59:20.400Z,32.10
2022-09-03T23:05:32.299Z,30.70
2022-09-03T23:11:38.810Z,32.53
2022-09-03T23:17:44.711Z,33.22
2022-09-03T23:23:54.163Z,31.17
2022-09-03T23:29:58.666Z,33.08
2022-09-03T23:36:06.723Z,33.17
2022-09-03T23:42:16.797Z,32.25
2022-09-03T23:48:26.643Z,32.67
2022-09-03T23:54:35.814Z,32.50
